createdAt,value
2022-10-10T00:01:09.540Z,100.00
2022-10-10T00:03:36.254Z,100.00
2022-10-10T00:06:03.350Z,100.00
2022-10-10T00:08:29.925Z,100.00
2022-10-10T00:10:56.501Z,100.00
2022-10-10T00:13:23.161Z,100.00
2022-10-10T00:15:49.749Z,100.00
2022-10-10T00:18:16.980Z,100.00
2022-10-10T00:20:43.640Z,100.00
2022-10-10T00:23:10.251Z,100.00
2022-10-10T00:25:37.585Z,100.00
2022-10-10T00:28:04.890Z,100.00
2022-10-10T00:30:31.648Z,100.00
2022-10-10T00:32:59.415Z,100.00
2022-10-10T00:35:26.242Z,100.00
2022-10-10T00:37:52.897Z,100.00
2022-10-10T00:40:19.928Z,100.00
2022-10-10T00:42:46.586Z,100.00
2022-10-10T00:45:30.983Z,100.00
2022-10-10T00:48:10.772Z,100.00
2022-10-10T00:50:46.249Z,100.00
2022-10-10T00:53:15.876Z,100.00
2022-10-10T00:55:43.551Z,100.00
2022-10-10T00:58:10.907Z,100.00
2022-10-10T01:00:37.552Z,100.00
2022-10-10T01:03:04.254Z,100.00
2022-10-10T01:05:32.071Z,100.00
2022-10-10T01:07:59.316Z,100.00
2022-10-10T01:10:26.117Z,100.00
2022-10-10T01:12:52.994Z,100.00
2022-10-10T01:15:19.689Z,100.00
2022-10-10T01:17:57.972Z,100.00
2022-10-10T01:20:39.643Z,100.00
2022-10-10T01:23:12.169Z,100.00
2022-10-10T01:26:06.436Z,100.00
2022-10-10T01:28:45.244Z,100.00
2022-10-10T01:31:16.245Z,100.00
2022-10-10T01:34:01.241Z,100.00
2022-10-10T01:36:39.057Z,100.00
2022-10-10T01:39:21.223Z,100.00
2022-10-10T01:41:56.293Z,100.00
2022-10-10T01:44:22.877Z,100.00
2022-10-10T01:46:49.417Z,100.00
2022-10-10T01:49:16.514Z,100.00
2022-10-10T01:52:19.717Z,100.00
2022-10-10T01:55:01.671Z,100.00
2022-10-10T01:57:40.787Z,100.00
2022-10-10T02:00:11.695Z,100.00
2022-10-10T02:03:02.252Z,100.00
2022-10-10T02:05:56.704Z,100.00
2022-10-10T02:08:32.831Z,100.00
2022-10-10T02:11:05.264Z,100.00
2022-10-10T02:13:38.066Z,100.00
2022-10-10T02:16:10.130Z,100.00
2022-10-10T02:18:37.208Z,100.00
2022-10-10T02:21:06.644Z,100.00
2022-10-10T02:23:34.796Z,100.00
2022-10-10T02:26:02.642Z,100.00
2022-10-10T02:28:46.197Z,100.00
2022-10-10T02:31:19.393Z,100.00
2022-10-10T02:33:53.355Z,100.00
2022-10-10T02:36:21.664Z,100.00
2022-10-10T02:38:49.308Z,100.00
2022-10-10T02:41:19.452Z,100.00
2022-10-10T02:43:46.842Z,100.00
2022-10-10T02:46:14.675Z,100.00
2022-10-10T02:48:41.555Z,100.00
2022-10-10T02:51:09.212Z,100.00
2022-10-10T02:53:37.673Z,100.00
2022-10-10T02:56:04.968Z,100.00
2022-10-10T02:58:31.567Z,100.00
2022-10-10T03:00:58.637Z,100.00
2022-10-10T03:03:25.806Z,100.00
2022-10-10T03:05:52.687Z,100.00
2022-10-10T03:08:19.342Z,100.00
2022-10-10T03:11:00.257Z,100.00
2022-10-10T03:13:27.086Z,100.00
2022-10-10T03:15:54.050Z,100.00
2022-10-10T03:18:21.184Z,100.00
2022-10-10T03:20:52.488Z,100.00
2022-10-10T03:23:19.411Z,100.00
2022-10-10T03:25:46.217Z,100.00
2022-10-10T03:28:13.474Z,100.00
2022-10-10T03:30:40.319Z,100.00
2022-10-10T03:33:07.641Z,100.00
2022-10-10T03:35:34.459Z,100.00
2022-10-10T03:38:01.353Z,100.00
2022-10-10T03:40:28.941Z,100.00
2022-10-10T03:42:55.542Z,100.00
2022-10-10T03:45:22.120Z,100.00
2022-10-10T03:47:51.469Z,100.00
2022-10-10T03:50:18.292Z,100.00
2022-10-10T03:52:44.820Z,100.00
2022-10-10T03:55:11.494Z,100.00
2022-10-10T03:57:38.135Z,100.00
2022-10-10T04:00:05.165Z,100.00
2022-10-10T04:02:31.666Z,100.00
2022-10-10T04:04:58.282Z,100.00
2022-10-10T04:07:24.948Z,100.00
2022-10-10T04:09:51.495Z,100.00
2022-10-10T04:12:18.067Z,100.00
2022-10-10T04:14:44.609Z,100.00
2022-10-10T04:17:11.201Z,100.00
2022-10-10T04:19:37.782Z,100.00
2022-10-10T04:22:08.914Z,100.00
2022-10-10T04:24:37.541Z,100.00
2022-10-10T04:27:04.272Z,100.00
2022-10-10T04:29:30.886Z,100.00
2022-10-10T04:31:57.470Z,100.00
2022-10-10T04:34:24.087Z,100.00
2022-10-10T04:36:50.663Z,100.00
2022-10-10T04:39:17.308Z,100.00
2022-10-10T04:41:43.915Z,100.00
2022-10-10T04:44:10.463Z,100.00
2022-10-10T04:46:37.001Z,100.00
2022-10-10T04:49:03.575Z,100.00
2022-10-10T04:51:30.227Z,100.00
2022-10-10T04:53:56.783Z,100.00
2022-10-10T04:56:25.308Z,100.00
2022-10-10T04:58:51.878Z,100.00
2022-10-10T05:01:18.572Z,100.00
2022-10-10T05:03:45.166Z,100.00
2022-10-10T05:06:11.801Z,100.00
2022-10-10T05:08:38.343Z,100.00
2022-10-10T05:11:05.013Z,100.00
2022-10-10T05:13:31.549Z,100.00
2022-10-10T05:15:58.926Z,100.00
2022-10-10T05:18:25.572Z,100.00
2022-10-10T05:20:52.165Z,100.00
2022-10-10T05:23:18.713Z,100.00
2022-10-10T05:25:49.577Z,100.00
2022-10-10T05:28:17.249Z,100.00
2022-10-10T05:30:43.895Z,100.00
2022-10-10T05:33:10.460Z,100.00
2022-10-10T05:35:37.095Z,100.00
2022-10-10T05:38:03.831Z,100.00
2022-10-10T05:40:30.348Z,100.00
2022-10-10T05:42:56.976Z,100.00
2022-10-10T05:45:23.641Z,100.00
2022-10-10T05:47:50.203Z,100.00
2022-10-10T05:50:39.106Z,100.00
2022-10-10T05:53:06.897Z,100.00
2022-10-10T05:55:33.885Z,100.00
2022-10-10T05:58:00.431Z,100.00
2022-10-10T06:00:27.089Z,100.00
2022-10-10T06:02:54.424Z,100.00
2022-10-10T06:05:21.218Z,100.00
2022-10-10T06:08:04.688Z,100.00
2022-10-10T06:10:35.875Z,100.00
2022-10-10T06:13:02.447Z,100.00
2022-10-10T06:15:29.017Z,100.00
2022-10-10T06:17:55.585Z,100.00
2022-10-10T06:20:22.239Z,100.00
2022-10-10T06:22:49.205Z,100.00
2022-10-10T06:25:38.466Z,100.00
2022-10-10T06:28:02.937Z,100.00
2022-10-10T06:30:29.682Z,100.00
2022-10-10T06:32:57.685Z,100.00
2022-10-10T06:35:24.561Z,100.00
2022-10-10T06:37:51.229Z,100.00
2022-10-10T06:40:17.882Z,100.00
2022-10-10T06:42:44.475Z,100.00
2022-10-10T06:45:11.114Z,100.00
2022-10-10T06:47:37.710Z,100.00
2022-10-10T06:50:07.218Z,100.00
2022-10-10T06:52:33.893Z,100.00
2022-10-10T06:55:00.449Z,100.00
2022-10-10T06:57:27.967Z,100.00
2022-10-10T06:59:54.568Z,100.00
2022-10-10T07:02:21.177Z,100.00
2022-10-10T07:04:47.740Z,100.00
2022-10-10T07:07:14.410Z,100.00
2022-10-10T07:09:41.012Z,100.00
2022-10-10T07:12:07.698Z,100.00
2022-10-10T07:14:34.220Z,100.00
2022-10-10T07:17:00.839Z,100.00
2022-10-10T07:19:27.989Z,100.00
2022-10-10T07:21:54.520Z,100.00
2022-10-10T07:24:21.172Z,100.00
2022-10-10T07:26:47.758Z,100.00
2022-10-10T07:29:14.431Z,100.00
2022-10-10T07:31:40.948Z,100.00
2022-10-10T07:34:07.528Z,100.00
2022-10-10T07:36:34.221Z,100.00
2022-10-10T07:39:00.847Z,100.00
2022-10-10T07:41:27.386Z,100.00
2022-10-10T07:43:55.876Z,100.00
2022-10-10T07:46:22.940Z,100.00
2022-10-10T07:48:49.501Z,100.00
2022-10-10T07:51:16.625Z,100.00
2022-10-10T07:53:44.290Z,100.00
2022-10-10T07:56:11.398Z,100.00
2022-10-10T07:58:38.066Z,100.00
2022-10-10T08:01:12.044Z,100.00
2022-10-10T08:03:39.343Z,100.00
2022-10-10T08:06:08.084Z,100.00
2022-10-10T08:08:44.859Z,100.00
2022-10-10T08:11:18.266Z,100.00
2022-10-10T08:13:45.110Z,100.00
2022-10-10T08:16:11.695Z,100.00
2022-10-10T08:18:38.380Z,100.00
2022-10-10T08:21:10.454Z,100.00
2022-10-10T08:23:40.022Z,100.00
2022-10-10T08:26:10.673Z,100.00
2022-10-10T08:28:38.392Z,100.00
2022-10-10T08:31:06.843Z,100.00
2022-10-10T08:33:33.647Z,100.00
2022-10-10T08:36:15.439Z,100.00
2022-10-10T08:38:42.629Z,100.00
2022-10-10T08:41:24.791Z,100.00
2022-10-10T08:44:35.904Z,100.00
2022-10-10T08:47:36.482Z,100.00
2022-10-10T08:50:20.205Z,100.00
2022-10-10T08:52:48.761Z,100.00
2022-10-10T08:55:18.195Z,100.00
2022-10-10T08:57:51.627Z,100.00
2022-10-10T09:00:22.188Z,100.00
2022-10-10T09:02:57.305Z,100.00
2022-10-10T09:05:42.343Z,100.00
2022-10-10T09:08:27.690Z,100.00
2022-10-10T09:10:58.173Z,100.00
2022-10-10T09:13:39.735Z,100.00
2022-10-10T09:16:13.657Z,100.00
2022-10-10T09:18:59.665Z,100.00
2022-10-10T09:21:32.875Z,100.00
2022-10-10T09:24:20.577Z,100.00
2022-10-10T09:26:55.741Z,100.00
2022-10-10T09:29:42.432Z,100.00
2022-10-10T09:32:21.229Z,100.00
2022-10-10T09:34:59.931Z,100.00
2022-10-10T09:37:46.885Z,100.00
2022-10-10T09:40:26.523Z,100.00
2022-10-10T09:42:53.581Z,100.00
2022-10-10T09:45:28.459Z,100.00
2022-10-10T09:47:55.671Z,100.00
2022-10-10T09:50:23.239Z,100.00
2022-10-10T09:52:51.641Z,100.00
2022-10-10T09:55:30.460Z,100.00
2022-10-10T09:58:10.859Z,100.00
2022-10-10T10:00:37.753Z,100.00
2022-10-10T10:03:20.921Z,100.00
2022-10-10T10:06:01.649Z,100.00
2022-10-10T10:08:33.330Z,97.32
2022-10-10T10:11:01.308Z,91.18
2022-10-10T10:13:35.910Z,92.43
2022-10-10T10:16:12.906Z,95.88
2022-10-10T10:18:44.756Z,90.75
2022-10-10T10:21:24.263Z,78.14
2022-10-10T10:24:10.088Z,73.87
2022-10-10T10:26:41.836Z,79.54
2022-10-10T10:29:28.964Z,84.03
2022-10-10T10:32:08.865Z,78.63
2022-10-10T10:34:35.412Z,81.72
2022-10-10T10:37:14.729Z,82.40
2022-10-10T10:40:03.222Z,82.59
2022-10-10T10:42:39.186Z,83.38
2022-10-10T10:45:37.227Z,79.42
2022-10-10T10:48:12.621Z,77.45
2022-10-10T10:51:14.686Z,77.60
2022-10-10T10:53:49.763Z,78.00
2022-10-10T10:56:25.680Z,79.98
2022-10-10T11:02:00.890Z,81.43
2022-10-10T11:05:24.797Z,82.97
2022-10-10T11:08:20.645Z,80.86
2022-10-10T11:11:31.866Z,84.64
2022-10-10T11:14:36.777Z,80.77
2022-10-10T11:17:20.463Z,80.35
2022-10-10T11:19:56.523Z,80.82
2022-10-10T11:22:31.913Z,74.93
2022-10-10T11:25:07.571Z,79.90
2022-10-10T11:27:40.493Z,81.08
2022-10-10T11:30:21.932Z,82.16
2022-10-10T11:33:11.265Z,83.45
2022-10-10T11:35:55.609Z,84.14
2022-10-10T11:38:34.993Z,74.43
2022-10-10T11:41:15.742Z,77.15
2022-10-10T11:43:50.873Z,78.85
2022-10-10T11:46:33.405Z,77.79
2022-10-10T11:49:11.737Z,73.62
2022-10-10T11:51:42.904Z,72.73
2022-10-10T11:54:25.547Z,73.27
2022-10-10T11:56:57.485Z,72.42
2022-10-10T11:59:38.560Z,73.51
2022-10-10T12:02:24.413Z,75.34
2022-10-10T12:04:54.064Z,83.38
2022-10-10T12:07:38.403Z,84.32
2022-10-10T12:10:18.699Z,81.16
2022-10-10T12:12:49.262Z,80.99
2022-10-10T12:15:38.643Z,83.98
2022-10-10T12:18:24.193Z,81.37
2022-10-10T12:21:04.851Z,73.63
2022-10-10T12:23:32.517Z,72.25
2022-10-10T12:25:59.446Z,74.40
2022-10-10T12:28:28.991Z,75.55
2022-10-10T12:30:58.268Z,72.09
2022-10-10T12:33:33.784Z,74.08
2022-10-10T12:36:21.663Z,78.43
2022-10-10T12:39:03.334Z,78.75
2022-10-10T12:41:46.956Z,74.08
2022-10-10T12:44:19.978Z,68.10
2022-10-10T12:46:49.819Z,70.04
2022-10-10T12:49:23.947Z,68.57
2022-10-10T12:52:18.139Z,69.33
2022-10-10T12:54:45.958Z,66.91
2022-10-10T12:57:18.749Z,65.95
2022-10-10T12:59:46.240Z,74.90
2022-10-10T13:02:20.357Z,78.12
2022-10-10T13:04:48.254Z,83.34
2022-10-10T13:07:19.158Z,79.54
2022-10-10T13:09:47.397Z,88.97
2022-10-10T13:12:32.285Z,91.19
2022-10-10T13:14:58.901Z,94.80
2022-10-10T13:17:25.479Z,95.39
2022-10-10T13:19:55.474Z,92.76
2022-10-10T13:22:23.250Z,91.01
2022-10-10T13:24:51.130Z,88.35
2022-10-10T13:27:24.754Z,92.03
2022-10-10T13:29:53.275Z,91.16
2022-10-10T13:32:26.472Z,88.10
2022-10-10T13:35:02.188Z,94.97
2022-10-10T13:37:29.394Z,96.79
2022-10-10T13:39:56.291Z,96.43
2022-10-10T13:42:36.909Z,99.43
2022-10-10T13:45:27.880Z,96.09
2022-10-10T13:48:02.791Z,99.89
2022-10-10T13:50:29.289Z,95.43
2022-10-10T13:53:26.579Z,97.62
2022-10-10T13:56:02.068Z,95.69
2022-10-10T13:58:31.943Z,96.37
2022-10-10T14:01:01.800Z,92.12
2022-10-10T14:03:31.362Z,93.78
2022-10-10T14:05:57.970Z,88.79
2022-10-10T14:08:32.151Z,94.00
2022-10-10T14:11:05.935Z,96.52
2022-10-10T14:13:37.015Z,99.25
2022-10-10T14:16:30.028Z,96.93
2022-10-10T14:18:56.587Z,97.75
2022-10-10T14:21:25.862Z,98.02
2022-10-10T14:23:52.496Z,96.61
2022-10-10T14:26:20.775Z,95.70
2022-10-10T14:28:48.112Z,99.94
2022-10-10T14:31:15.145Z,96.89
2022-10-10T14:33:41.704Z,96.04
2022-10-10T14:36:08.576Z,96.25
2022-10-10T14:38:35.118Z,100.00
2022-10-10T14:41:02.290Z,100.00
2022-10-10T14:43:29.269Z,99.38
2022-10-10T14:45:55.830Z,100.00
2022-10-10T14:48:22.534Z,100.00
2022-10-10T14:50:51.096Z,100.00
2022-10-10T14:53:18.160Z,100.00
2022-10-10T14:55:45.845Z,100.00
2022-10-10T14:58:21.890Z,100.00
2022-10-10T15:00:52.547Z,100.00
2022-10-10T15:03:19.271Z,100.00
2022-10-10T15:05:47.249Z,100.00
2022-10-10T15:08:15.958Z,100.00
2022-10-10T15:10:43.120Z,100.00
2022-10-10T15:13:13.151Z,100.00
2022-10-10T15:15:40.580Z,100.00
2022-10-10T15:18:25.717Z,100.00
2022-10-10T15:20:54.573Z,100.00
2022-10-10T15:23:21.689Z,100.00
2022-10-10T15:25:48.305Z,100.00
2022-10-10T15:28:14.916Z,100.00
2022-10-10T15:30:45.559Z,100.00
2022-10-10T15:33:12.149Z,100.00
2022-10-10T15:36:03.851Z,100.00
2022-10-10T15:38:25.783Z,100.00
2022-10-10T15:41:00.532Z,100.00
2022-10-10T15:43:28.300Z,100.00
2022-10-10T15:45:56.494Z,100.00
2022-10-10T15:48:23.364Z,100.00
2022-10-10T15:50:51.349Z,100.00
2022-10-10T15:53:18.885Z,100.00
2022-10-10T15:55:46.832Z,100.00
2022-10-10T15:58:16.595Z,100.00
2022-10-10T16:00:46.807Z,100.00
2022-10-10T16:03:13.497Z,100.00
2022-10-10T16:05:42.031Z,100.00
2022-10-10T16:08:12.069Z,100.00
2022-10-10T16:10:43.241Z,100.00
2022-10-10T16:13:10.365Z,100.00
2022-10-10T16:15:36.954Z,100.00
2022-10-10T16:18:03.771Z,100.00
2022-10-10T16:20:30.360Z,100.00
2022-10-10T16:22:56.928Z,100.00
2022-10-10T16:25:23.587Z,100.00
2022-10-10T16:27:50.384Z,100.00
2022-10-10T16:30:17.020Z,100.00
2022-10-10T16:32:43.629Z,100.00
2022-10-10T16:35:11.174Z,100.00
2022-10-10T16:37:38.673Z,100.00
2022-10-10T16:40:06.267Z,100.00
2022-10-10T16:42:33.922Z,100.00
2022-10-10T16:45:00.476Z,100.00
2022-10-10T16:47:27.022Z,100.00
2022-10-10T16:49:53.603Z,100.00
2022-10-10T16:52:20.130Z,100.00
2022-10-10T16:54:51.192Z,100.00
2022-10-10T16:57:20.717Z,100.00
2022-10-10T16:59:47.286Z,100.00
2022-10-10T17:02:13.809Z,100.00
2022-10-10T17:04:40.430Z,100.00
2022-10-10T17:07:07.023Z,100.00
2022-10-10T17:09:33.547Z,100.00
2022-10-10T17:12:00.117Z,100.00
2022-10-10T17:14:26.880Z,100.00
2022-10-10T17:19:40.236Z,100.00
2022-10-10T17:22:06.826Z,100.00
2022-10-10T17:24:33.508Z,100.00
2022-10-10T17:27:00.035Z,100.00
2022-10-10T17:29:26.572Z,100.00
2022-10-10T17:31:53.242Z,100.00
2022-10-10T17:34:19.851Z,100.00
2022-10-10T17:36:46.424Z,100.00
2022-10-10T17:39:12.975Z,100.00
2022-10-10T17:41:39.671Z,100.00
2022-10-10T17:44:10.290Z,100.00
2022-10-10T17:46:37.412Z,100.00
2022-10-10T17:49:06.986Z,100.00
2022-10-10T17:51:34.771Z,100.00
2022-10-10T17:54:06.373Z,100.00
2022-10-10T17:56:33.425Z,100.00
2022-10-10T17:59:01.601Z,100.00
2022-10-10T18:01:30.630Z,100.00
2022-10-10T18:03:57.868Z,100.00
2022-10-10T18:06:25.050Z,100.00
2022-10-10T18:08:53.252Z,100.00
2022-10-10T18:11:23.267Z,100.00
2022-10-10T18:13:50.871Z,100.00
2022-10-10T18:16:22.522Z,100.00
2022-10-10T18:18:51.967Z,100.00
2022-10-10T18:21:21.617Z,100.00
2022-10-10T18:23:48.986Z,100.00
2022-10-10T18:26:24.255Z,100.00
2022-10-10T18:28:53.624Z,100.00
2022-10-10T18:31:26.609Z,100.00
2022-10-10T18:33:53.590Z,100.00
2022-10-10T18:36:23.915Z,100.00
2022-10-10T18:38:50.562Z,100.00
2022-10-10T18:41:19.951Z,100.00
2022-10-10T18:43:47.568Z,100.00
2022-10-10T18:46:17.399Z,100.00
2022-10-10T18:48:44.575Z,100.00
2022-10-10T18:51:24.011Z,100.00
2022-10-10T18:53:52.276Z,100.00
2022-10-10T18:56:24.218Z,100.00
2022-10-10T18:58:56.286Z,100.00
2022-10-10T19:01:25.050Z,100.00
2022-10-10T19:03:53.104Z,100.00
2022-10-10T19:06:20.321Z,100.00
2022-10-10T19:08:46.889Z,100.00
2022-10-10T19:11:25.685Z,100.00
2022-10-10T19:13:52.510Z,100.00
2022-10-10T19:16:19.467Z,100.00
2022-10-10T19:18:46.409Z,100.00
2022-10-10T19:21:13.255Z,100.00
2022-10-10T19:23:40.152Z,100.00
2022-10-10T19:26:09.179Z,100.00
2022-10-10T19:28:37.020Z,100.00
2022-10-10T19:31:06.716Z,100.00
2022-10-10T19:33:33.530Z,100.00
2022-10-10T19:36:02.191Z,100.00
2022-10-10T19:38:29.643Z,100.00
2022-10-10T19:40:56.622Z,100.00
2022-10-10T19:43:24.032Z,100.00
2022-10-10T19:45:53.901Z,100.00
2022-10-10T19:48:23.388Z,100.00
2022-10-10T19:50:49.953Z,100.00
2022-10-10T19:53:18.014Z,100.00
2022-10-10T19:55:55.995Z,100.00
2022-10-10T19:58:22.603Z,100.00
2022-10-10T20:00:49.161Z,100.00
2022-10-10T20:03:15.783Z,100.00
2022-10-10T20:05:42.338Z,100.00
2022-10-10T20:08:08.897Z,100.00
2022-10-10T20:10:35.589Z,100.00
2022-10-10T20:13:02.187Z,100.00
2022-10-10T20:15:28.740Z,100.00
2022-10-10T20:17:55.330Z,100.00
2022-10-10T20:20:21.861Z,100.00
2022-10-10T20:22:48.480Z,100.00
2022-10-10T20:25:15.013Z,100.00
2022-10-10T20:27:41.575Z,100.00
2022-10-10T20:30:08.518Z,100.00
2022-10-10T20:32:35.090Z,100.00
2022-10-10T20:35:02.416Z,100.00
2022-10-10T20:37:28.986Z,100.00
2022-10-10T20:39:55.639Z,100.00
2022-10-10T20:42:22.179Z,100.00
2022-10-10T20:44:49.529Z,100.00
2022-10-10T20:47:16.093Z,100.00
2022-10-10T20:49:42.626Z,100.00
2022-10-10T20:52:09.191Z,100.00
2022-10-10T20:54:36.514Z,100.00
2022-10-10T20:57:03.179Z,100.00
2022-10-10T20:59:29.857Z,100.00
2022-10-10T21:01:56.468Z,100.00
2022-10-10T21:04:23.112Z,100.00
2022-10-10T21:06:49.672Z,100.00
2022-10-10T21:09:16.240Z,100.00
2022-10-10T21:11:44.101Z,100.00
2022-10-10T21:14:13.177Z,100.00
2022-10-10T21:16:40.886Z,100.00
2022-10-10T21:19:12.442Z,100.00
2022-10-10T21:21:38.955Z,100.00
2022-10-10T21:24:07.957Z,100.00
2022-10-10T21:26:34.683Z,100.00
2022-10-10T21:29:01.275Z,100.00
2022-10-10T21:31:30.565Z,100.00
2022-10-10T21:33:57.249Z,100.00
2022-10-10T21:36:25.240Z,100.00
2022-10-10T21:38:51.894Z,100.00
2022-10-10T21:41:20.418Z,100.00
2022-10-10T21:43:49.999Z,100.00
2022-10-10T21:46:19.805Z,100.00
2022-10-10T21:48:46.382Z,100.00
2022-10-10T21:51:15.585Z,100.00
2022-10-10T21:53:43.571Z,100.00
2022-10-10T21:56:11.410Z,100.00
2022-10-10T21:58:41.074Z,100.00
2022-10-10T22:01:14.923Z,100.00
2022-10-10T22:03:42.602Z,100.00
2022-10-10T22:06:12.303Z,100.00
2022-10-10T22:08:40.047Z,100.00
2022-10-10T22:11:09.846Z,100.00
2022-10-10T22:13:36.641Z,100.00
2022-10-10T22:16:04.338Z,100.00
2022-10-10T22:18:31.817Z,100.00
2022-10-10T22:21:01.461Z,100.00
2022-10-10T22:23:28.023Z,100.00
2022-10-10T22:25:54.571Z,100.00
2022-10-10T22:28:21.253Z,100.00
2022-10-10T22:30:47.867Z,100.00
2022-10-10T22:33:14.496Z,100.00
2022-10-10T22:35:41.201Z,100.00
2022-10-10T22:38:07.899Z,100.00
2022-10-10T22:40:34.650Z,100.00
2022-10-10T22:43:01.632Z,100.00
2022-10-10T22:45:29.284Z,100.00
2022-10-10T22:47:55.902Z,100.00
2022-10-10T22:50:25.256Z,100.00
2022-10-10T22:52:51.811Z,100.00
2022-10-10T22:55:18.996Z,100.00
2022-10-10T22:57:46.197Z,100.00
2022-10-10T23:00:13.831Z,100.00
2022-10-10T23:02:40.401Z,100.00
2022-10-10T23:05:07.545Z,100.00
2022-10-10T23:07:34.309Z,100.00
2022-10-10T23:10:00.893Z,100.00
2022-10-10T23:12:27.466Z,100.00
2022-10-10T23:14:54.013Z,100.00
2022-10-10T23:17:20.588Z,100.00
2022-10-10T23:19:47.111Z,100.00
2022-10-10T23:22:13.772Z,100.00
2022-10-10T23:24:40.588Z,100.00
2022-10-10T23:27:07.483Z,100.00
2022-10-10T23:29:34.341Z,100.00
2022-10-10T23:32:00.889Z,100.00
2022-10-10T23:34:27.503Z,100.00
2022-10-10T23:36:54.094Z,100.00
2022-10-10T23:39:20.753Z,100.00
2022-10-10T23:41:47.365Z,100.00
2022-10-10T23:44:13.930Z,100.00
2022-10-10T23:46:40.537Z,100.00
2022-10-10T23:49:07.077Z,100.00
2022-10-10T23:51:33.739Z,100.00
2022-10-10T23:54:00.307Z,100.00
2022-10-10T23:56:26.858Z,100.00
2022-10-10T23:58:53.453Z,100.00
